Time;durP1;ratioP1;P1;durP2;ratioP2;P2;SDS_P1;SDS_P2;PMS_P1;PMS_P2;Temp;Humidity;BMP_temperature;BMP_pressure;BME280_temperature;BME280_humidity;BME280_pressure;Samples;Min_cycle;Max_cycle;Signal;HPM_P1;HPM_P2
2022/11/18 00:01:53;;;;;;;0.30;0.20;;;8.00;99.90;;;;;;5088354;28;20669;-83
2022/11/18 00:04:21;;;;;;;0.73;0.50;;;7.90;99.90;;;;;;5088368;28;20660;-84
2022/11/18 00:06:48;;;;;;;0.60;0.50;;;;;;;;;;5087786;28;21351;-84
2022/11/18 00:09:15;;;;;;;0.40;0.20;;;8.00;99.90;;;;;;5088456;28;21182;-84
2022/11/18 00:14:28;;;;;;;0.40;0.23;;;8.00;99.90;;;;;;5088272;28;20721;-82
2022/11/18 00:16:57;;;;;;;0.30;0.30;;;8.00;99.90;;;;;;5094797;28;20648;-83
2022/11/18 00:19:26;;;;;;;0.30;0.20;;;7.90;99.90;;;;;;5107887;28;20708;-83
2022/11/18 00:21:52;;;;;;;0.30;0.20;;;7.90;99.90;;;;;;5108612;28;20646;-83
2022/11/18 00:24:20;;;;;;;0.30;0.30;;;7.90;99.90;;;;;;5108416;28;20677;-83
2022/11/18 00:26:47;;;;;;;0.40;0.30;;;;;;;;;;5107968;28;21181;-82
2022/11/18 00:29:14;;;;;;;0.70;0.57;;;8.00;99.90;;;;;;5108520;28;20657;-82
2022/11/18 00:31:43;;;;;;;0.80;0.63;;;8.10;99.90;;;;;;5107592;28;20880;-82
2022/11/18 00:34:12;;;;;;;0.90;0.40;;;8.10;99.90;;;;;;5108323;28;20722;-82
2022/11/18 00:36:39;;;;;;;0.40;0.30;;;8.00;99.90;;;;;;5107337;28;20627;-82
2022/11/18 00:39:06;;;;;;;0.50;0.37;;;8.10;99.90;;;;;;5108400;28;20634;-82
2022/11/18 00:44:14;;;;;;;0.60;0.60;;;8.10;99.90;;;;;;5107101;27;20681;-83
2022/11/18 00:46:41;;;;;;;0.90;0.50;;;7.60;99.90;;;;;;5107630;28;20635;-82
2022/11/18 00:49:09;;;;;;;0.30;0.10;;;7.90;99.90;;;;;;5108230;28;20702;-82
2022/11/18 00:51:36;;;;;;;0.30;0.20;;;7.90;99.90;;;;;;5108111;28;20710;-83
2022/11/18 00:54:04;;;;;;;0.50;0.40;;;8.00;99.90;;;;;;5108641;28;21059;-82
2022/11/18 00:56:31;;;;;;;0.30;0.20;;;8.00;99.90;;;;;;5107442;28;20701;-82
2022/11/18 00:58:58;;;;;;;0.30;0.20;;;7.90;99.90;;;;;;5103627;28;20613;-83
2022/11/18 01:01:25;;;;;;;0.87;0.50;;;8.00;99.90;;;;;;5087414;28;20727;-82
2022/11/18 01:03:53;;;;;;;0.30;0.20;;;7.80;99.90;;;;;;5087601;28;20683;-83
2022/11/18 01:06:21;;;;;;;0.60;0.57;;;8.10;99.90;;;;;;5087063;28;20735;-82
2022/11/18 01:08:48;;;;;;;0.30;0.10;;;8.10;99.90;;;;;;5087594;28;20632;-83
2022/11/18 01:13:59;;;;;;;0.37;0.33;;;8.10;99.90;;;;;;5087870;28;20616;-83
2022/11/18 01:16:28;;;;;;;0.30;0.20;;;7.90;99.90;;;;;;5090242;28;20620;-83
2022/11/18 01:18:55;;;;;;;5.10;0.60;;;8.10;99.90;;;;;;5107934;28;20723;-83
2022/11/18 01:21:23;;;;;;;0.40;0.30;;;8.10;99.90;;;;;;5108099;28;20711;-83
2022/11/18 01:23:50;;;;;;;0.30;0.20;;;8.40;99.90;;;;;;5107791;28;20694;-83
2022/11/18 01:26:17;;;;;;;0.30;0.10;;;8.20;99.90;;;;;;5107532;28;20608;-82
2022/11/18 01:28:44;;;;;;;0.40;0.30;;;8.00;99.90;;;;;;5108404;28;20706;-83
2022/11/18 01:31:13;;;;;;;0.30;0.20;;;8.10;99.90;;;;;;5108111;28;20624;-82
2022/11/18 01:33:40;;;;;;;2.40;0.50;;;8.00;99.90;;;;;;5107101;28;20723;-83
2022/11/18 01:36:15;;;;;;;0.30;0.20;;;8.10;99.90;;;;;;5107930;28;20636;-82
2022/11/18 01:38:44;;;;;;;0.30;0.20;;;8.10;99.90;;;;;;5107007;28;20627;-82
2022/11/18 01:41:11;;;;;;;0.30;0.20;;;8.10;99.90;;;;;;5108025;28;20630;-82
2022/11/18 01:43:50;;;;;;;0.53;0.33;;;8.10;99.90;;;;;;5107399;28;21284;-82
2022/11/18 01:46:16;;;;;;;0.30;0.30;;;8.10;99.90;;;;;;5107358;28;21193;-82
2022/11/18 01:48:44;;;;;;;0.47;0.47;;;8.00;99.90;;;;;;5109219;28;20742;-83
2022/11/18 01:51:16;;;;;;;0.30;0.30;;;8.00;99.90;;;;;;5111145;28;20616;-82
2022/11/18 01:53:49;;;;;;;0.40;0.20;;;8.00;99.90;;;;;;5111260;28;20991;-82
2022/11/18 01:56:20;;;;;;;0.60;0.57;;;8.00;99.90;;;;;;5111279;28;20714;-82
2022/11/18 01:58:53;;;;;;;0.30;0.20;;;8.20;99.90;;;;;;5108754;28;20659;-83
2022/11/18 02:01:20;;;;;;;0.30;0.20;;;8.00;99.90;;;;;;5090712;28;20975;-83
2022/11/18 02:03:48;;;;;;;0.30;0.20;;;8.00;99.90;;;;;;5090206;28;20663;-82
2022/11/18 02:06:15;;;;;;;0.60;0.30;;;8.00;99.90;;;;;;5090796;28;20623;-83
2022/11/18 02:08:44;;;;;;;0.30;0.20;;;8.20;99.90;;;;;;5089386;28;20965;-82
2022/11/18 02:11:49;;;;;;;0.60;0.30;;;7.90;99.90;;;;;;5102844;28;20627;-82
2022/11/18 02:14:03;;;;;;;0.73;0.30;;;7.90;99.90;;;;;;5110312;28;20619;-82
2022/11/18 02:16:42;;;;;;;0.30;0.20;;;8.00;99.90;;;;;;5110087;28;21197;-82
2022/11/18 02:19:32;;;;;;;0.30;0.20;;;8.00;99.90;;;;;;5110810;28;20623;-82
2022/11/18 02:22:12;;;;;;;0.40;0.30;;;8.00;99.90;;;;;;5111072;28;20611;-82
2022/11/18 02:24:50;;;;;;;1.70;0.53;;;8.00;99.90;;;;;;5110420;28;21009;-82
2022/11/18 02:27:59;;;;;;;0.50;0.27;;;8.00;99.90;;;;;;5110941;28;21020;-82
2022/11/18 02:30:32;;;;;;;0.30;0.30;;;7.90;99.90;;;;;;5110531;28;21177;-81
2022/11/18 02:33:05;;;;;;;0.47;0.23;;;7.80;99.90;;;;;;5110217;28;20634;-82
2022/11/18 02:35:40;;;;;;;0.53;0.40;;;8.20;99.90;;;;;;5090128;28;20697;-82
2022/11/18 02:38:11;;;;;;;0.30;0.20;;;7.90;99.90;;;;;;5090195;28;20980;-82
2022/11/18 02:40:42;;;;;;;0.30;0.20;;;7.80;99.90;;;;;;5090201;28;20611;-82
2022/11/18 02:43:14;;;;;;;9.00;0.63;;;7.90;99.90;;;;;;5089597;28;20612;-82
2022/11/18 02:45:48;;;;;;;0.30;0.20;;;7.90;99.90;;;;;;5090141;28;20618;-82
2022/11/18 02:48:18;;;;;;;0.97;0.20;;;8.00;99.90;;;;;;5089980;28;20707;-82
2022/11/18 02:50:48;;;;;;;0.30;0.20;;;8.00;99.90;;;;;;5090027;28;20698;-82
2022/11/18 02:53:19;;;;;;;0.70;0.20;;;7.80;99.90;;;;;;5089977;28;20618;-82
2022/11/18 02:55:47;;;;;;;0.30;0.20;;;7.90;99.90;;;;;;5089450;28;21075;-82
2022/11/18 02:58:17;;;;;;;0.40;0.40;;;7.90;99.90;;;;;;5089900;28;20981;-82
2022/11/18 03:00:53;;;;;;;0.70;0.33;;;7.80;99.90;;;;;;5107805;28;20615;-82
2022/11/18 03:03:27;;;;;;;0.40;0.30;;;7.80;99.90;;;;;;5110024;28;20615;-81
2022/11/18 03:06:03;;;;;;;1.07;1.07;;;7.80;99.90;;;;;;5109913;28;20695;-82
2022/11/18 03:08:37;;;;;;;0.50;0.47;;;7.80;99.90;;;;;;5110339;28;20706;-82
2022/11/18 03:11:10;;;;;;;5.23;0.80;;;7.80;99.90;;;;;;5109869;28;20610;-82
2022/11/18 03:13:48;;;;;;;2.40;1.20;;;7.80;99.90;;;;;;5109945;28;20654;-82
2022/11/18 03:16:23;;;;;;;0.40;0.40;;;7.80;99.90;;;;;;5109625;28;20612;-82
2022/11/18 03:18:56;;;;;;;0.53;0.50;;;7.80;99.90;;;;;;5109438;28;21211;-82
2022/11/18 03:21:30;;;;;;;0.30;0.20;;;7.80;99.90;;;;;;5109783;28;20621;-83
2022/11/18 03:24:03;;;;;;;0.30;0.20;;;7.80;99.90;;;;;;5109494;28;20651;-82
2022/11/18 03:26:35;;;;;;;0.40;0.33;;;7.90;99.90;;;;;;5108938;28;20614;-82
2022/11/18 03:29:04;;;;;;;0.30;0.27;;;7.80;99.90;;;;;;5109324;28;20647;-83
2022/11/18 03:31:39;;;;;;;0.30;0.30;;;7.80;99.90;;;;;;5108984;28;20715;-83
2022/11/18 03:34:10;;;;;;;0.40;0.30;;;7.80;99.90;;;;;;5109470;28;20619;-83
2022/11/18 03:36:41;;;;;;;0.30;0.20;;;7.70;99.90;;;;;;5109011;28;21190;-83
2022/11/18 03:39:12;;;;;;;0.30;0.20;;;7.60;99.90;;;;;;5109481;28;20635;-83
2022/11/18 03:41:46;;;;;;;0.30;0.20;;;7.60;99.90;;;;;;5108812;28;20819;-83
2022/11/18 03:44:18;;;;;;;0.30;0.17;;;7.60;99.90;;;;;;5109372;28;20691;-82
2022/11/18 03:46:51;;;;;;;0.30;0.20;;;7.60;99.90;;;;;;5109161;28;20747;-83
2022/11/18 03:49:24;;;;;;;0.30;0.10;;;7.60;99.90;;;;;;5109183;28;20607;-83
2022/11/18 03:51:58;;;;;;;0.30;0.20;;;7.60;99.90;;;;;;5108718;28;20611;-83
2022/11/18 03:54:28;;;;;;;0.30;0.20;;;8.00;99.90;;;;;;5109135;28;20603;-83
2022/11/18 03:57:00;;;;;;;0.63;0.63;;;7.60;99.90;;;;;;5109065;28;20608;-83
2022/11/18 03:59:32;;;;;;;0.47;0.20;;;7.60;99.90;;;;;;5101161;28;20753;-83
2022/11/18 04:02:06;;;;;;;0.67;0.30;;;7.60;99.90;;;;;;5088966;28;20615;-83
2022/11/18 04:04:32;;;;;;;0.30;0.20;;;7.50;99.90;;;;;;5088304;28;20751;-84
2022/11/18 04:07:05;;;;;;;0.73;0.20;;;7.40;99.90;;;;;;5088421;28;20707;-83
2022/11/18 04:09:36;;;;;;;0.30;0.20;;;7.50;99.90;;;;;;5088650;28;20727;-83
2022/11/18 04:12:07;;;;;;;0.40;0.27;;;7.60;99.90;;;;;;5088542;28;20631;-83
2022/11/18 04:14:36;;;;;;;0.30;0.20;;;7.50;99.90;;;;;;5088351;28;20632;-82
2022/11/18 04:17:09;;;;;;;0.63;0.47;;;7.50;99.90;;;;;;5095598;28;20715;-83
2022/11/18 04:19:36;;;;;;;0.30;0.20;;;7.50;99.90;;;;;;5108452;28;20628;-83
2022/11/18 04:22:04;;;;;;;0.60;0.50;;;7.50;99.90;;;;;;5108737;28;21196;-83
2022/11/18 04:24:30;;;;;;;0.77;0.50;;;7.40;99.90;;;;;;5108477;28;20663;-83
2022/11/18 04:26:57;;;;;;;0.47;0.33;;;7.70;99.90;;;;;;5108730;28;20720;-82
2022/11/18 04:29:24;;;;;;;0.30;0.20;;;7.50;99.90;;;;;;5107862;28;20647;-83
2022/11/18 04:31:51;;;;;;;0.30;0.20;;;7.40;99.90;;;;;;5108098;28;20734;-83
2022/11/18 04:34:20;;;;;;;0.50;0.40;;;7.30;99.90;;;;;;5108350;28;20715;-83
2022/11/18 04:36:46;;;;;;;0.40;0.30;;;7.30;99.90;;;;;;5108353;28;20708;-83
2022/11/18 04:39:13;;;;;;;0.30;0.20;;;7.30;99.90;;;;;;5108148;28;20616;-82
2022/11/18 04:44:28;;;;;;;0.30;0.20;;;7.30;99.90;;;;;;5102633;28;20686;-83
2022/11/18 04:46:56;;;;;;;0.30;0.20;;;7.50;99.90;;;;;;5108578;28;20607;-83
2022/11/18 04:49:25;;;;;;;0.40;0.38;;;7.20;99.90;;;;;;5108239;28;20731;-83
2022/11/18 04:51:53;;;;;;;0.40;0.20;;;7.20;99.90;;;;;;5108226;28;20217;-83
2022/11/18 04:54:21;;;;;;;0.30;0.20;;;7.20;99.90;;;;;;5107720;28;20197;-84
2022/11/18 04:56:48;;;;;;;0.70;0.20;;;6.70;99.90;;;;;;5107675;28;21057;-82
2022/11/18 04:59:17;;;;;;;0.30;0.20;;;7.20;99.90;;;;;;5101782;28;20644;-83
2022/11/18 05:01:44;;;;;;;0.30;0.20;;;7.00;99.90;;;;;;5087966;28;20237;-83
2022/11/18 05:04:14;;;;;;;0.50;0.20;;;7.10;99.90;;;;;;5087515;28;20223;-82
2022/11/18 05:06:42;;;;;;;0.60;0.40;;;7.10;99.90;;;;;;5087334;28;20718;-83
2022/11/18 05:09:09;;;;;;;0.30;0.20;;;7.20;99.90;;;;;;5087147;28;20624;-83
2022/11/18 05:14:21;;;;;;;0.30;0.30;;;7.00;99.90;;;;;;5087606;28;21169;-83
2022/11/18 05:16:48;;;;;;;1.03;0.43;;;;;;;;;;5093373;28;20639;-82
2022/11/18 05:19:14;;;;;;;0.30;0.10;;;6.90;99.90;;;;;;5107850;28;21244;-84
2022/11/18 05:21:43;;;;;;;0.93;0.50;;;7.00;99.90;;;;;;5107615;28;20297;-83
2022/11/18 05:24:10;;;;;;;0.30;0.30;;;7.00;99.90;;;;;;5110212;28;21243;-83
2022/11/18 05:26:36;;;;;;;0.50;0.20;;;7.20;99.90;;;;;;5111956;28;20202;-83
2022/11/18 05:29:04;;;;;;;1.27;0.60;;;;;;;;;;5112328;28;20201;-83
2022/11/18 05:31:31;;;;;;;0.30;0.10;;;7.00;99.90;;;;;;5111255;28;20730;-84
2022/11/18 05:33:58;;;;;;;0.30;0.20;;;;;;;;;;5111481;28;20608;-84
2022/11/18 05:36:26;;;;;;;0.30;0.20;;;;;;;;;;5111372;28;20646;-83
2022/11/18 05:38:54;;;;;;;0.40;0.30;;;7.00;99.90;;;;;;5111721;28;20194;-83
2022/11/18 05:44:05;;;;;;;0.30;0.20;;;7.10;99.90;;;;;;5108279;28;20643;-83
2022/11/18 05:46:32;;;;;;;0.30;0.20;;;7.30;99.90;;;;;;5104399;28;20752;-84
2022/11/18 05:49:00;;;;;;;0.30;0.27;;;;;;;;;;5111825;28;20639;-83
2022/11/18 05:51:26;;;;;;;0.30;0.20;;;7.10;99.90;;;;;;5105671;28;20993;-84
2022/11/18 05:53:55;;;;;;;0.30;0.20;;;7.10;99.90;;;;;;5091088;28;20689;-83
2022/11/18 05:56:27;;;;;;;0.30;0.20;;;7.20;99.90;;;;;;5094750;28;20322;-85
2022/11/18 05:58:54;;;;;;;0.87;0.50;;;7.10;99.90;;;;;;5111118;28;20727;-85
2022/11/18 06:01:25;;;;;;;0.30;0.20;;;7.10;99.90;;;;;;5110980;28;20623;-86
2022/11/18 06:03:52;;;;;;;0.30;0.25;;;7.00;99.90;;;;;;5105135;28;20881;-85
2022/11/18 06:06:21;;;;;;;0.37;0.27;;;7.10;99.90;;;;;;5105443;28;20661;-85
2022/11/18 06:08:54;;;;;;;0.30;0.20;;;7.40;99.90;;;;;;5101447;28;20697;-85
2022/11/18 06:11:22;;;;;;;0.67;0.50;;;9.30;99.90;;;;;;5100273;28;20740;-85
2022/11/18 06:13:56;;;;;;;0.37;0.37;;;7.40;99.90;;;;;;5098845;28;20628;-85
2022/11/18 06:16:28;;;;;;;0.30;0.20;;;7.00;99.90;;;;;;5101634;28;20622;-85
2022/11/18 06:18:56;;;;;;;1.03;0.30;;;;;;;;;;5102037;28;20619;-85
2022/11/18 06:21:23;;;;;;;0.40;0.30;;;;;;;;;;5110429;28;20726;-85
2022/11/18 06:23:50;;;;;;;0.30;0.20;;;8.70;99.90;;;;;;5110551;28;20623;-85
2022/11/18 06:26:17;;;;;;;0.60;0.60;;;6.70;99.90;;;;;;5108790;28;20758;-85
2022/11/18 06:28:47;;;;;;;0.30;0.20;;;6.90;99.90;;;;;;5102091;28;20619;-85
2022/11/18 06:31:15;;;;;;;0.30;0.10;;;6.90;99.90;;;;;;5099789;28;20608;-85
2022/11/18 06:33:43;;;;;;;0.30;0.20;;;7.00;99.90;;;;;;5100772;28;20621;-84
2022/11/18 06:36:10;;;;;;;0.70;0.70;;;6.90;99.90;;;;;;5097981;28;20746;-85
2022/11/18 06:38:39;;;;;;;0.30;0.30;;;6.90;99.90;;;;;;5099200;28;20615;-85
2022/11/18 06:41:06;;;;;;;0.75;0.30;;;7.10;99.90;;;;;;5100937;28;20633;-85
2022/11/18 06:43:40;;;;;;;7.20;0.70;;;;;;;;;;5099649;28;20679;-85
2022/11/18 06:48:57;;;;;;;0.30;0.20;;;;;;;;;;5099941;28;20268;-84
2022/11/18 06:51:25;;;;;;;0.30;0.20;;;7.00;99.90;;;;;;5097243;28;20619;-85
2022/11/18 06:53:53;;;;;;;0.30;0.20;;;7.10;99.90;;;;;;5090213;28;20293;-85
2022/11/18 06:56:21;;;;;;;0.30;0.20;;;7.10;99.90;;;;;;5089614;28;20222;-85
2022/11/18 06:58:52;;;;;;;0.30;0.20;;;7.00;99.90;;;;;;5092254;28;20636;-85
2022/11/18 07:01:22;;;;;;;0.30;0.20;;;7.10;99.90;;;;;;5110129;27;20222;-84
2022/11/18 07:03:50;;;;;;;1.02;0.40;;;7.20;99.90;;;;;;5109889;28;20623;-85
2022/11/18 07:06:18;;;;;;;0.43;0.43;;;6.90;99.90;;;;;;5109991;28;20308;-85
2022/11/18 07:08:46;;;;;;;0.30;0.20;;;7.00;99.90;;;;;;5109794;28;20644;-84
2022/11/18 07:11:16;;;;;;;0.47;0.40;;;7.00;99.90;;;;;;5110179;28;20267;-84
2022/11/18 07:13:43;;;;;;;0.70;0.40;;;7.00;99.90;;;;;;5109159;28;20814;-84
2022/11/18 07:16:12;;;;;;;0.50;0.47;;;7.00;99.90;;;;;;5107906;28;20634;-84
2022/11/18 07:18:42;;;;;;;0.40;0.22;;;6.80;99.90;;;;;;5109408;28;20624;-84
2022/11/18 07:21:11;;;;;;;0.30;0.20;;;7.00;99.90;;;;;;5109092;28;20236;-84
2022/11/18 07:23:38;;;;;;;0.30;0.20;;;7.00;99.90;;;;;;5108703;28;20727;-84
2022/11/18 07:26:05;;;;;;;0.30;0.20;;;7.00;99.90;;;;;;5094088;28;20314;-84
2022/11/18 07:28:33;;;;;;;5.60;0.57;;;;;;;;;;5088585;28;20202;-86
2022/11/18 07:31:04;;;;;;;0.40;0.40;;;7.00;99.90;;;;;;5089324;28;20648;-84
2022/11/18 07:33:32;;;;;;;0.30;0.20;;;6.80;99.90;;;;;;5102826;28;20997;-85
2022/11/18 07:36:04;;;;;;;0.30;0.20;;;7.00;99.90;;;;;;5089835;28;20605;-84
2022/11/18 07:38:31;;;;;;;0.30;0.20;;;;;;;;;;5098475;28;20724;-85
2022/11/18 07:41:03;;;;;;;0.45;0.28;;;7.10;99.90;;;;;;5088937;28;20199;-85
2022/11/18 07:43:30;;;;;;;0.40;0.30;;;7.10;99.90;;;;;;5089684;28;20615;-85
2022/11/18 07:45:57;;;;;;;0.40;0.30;;;7.00;99.90;;;;;;5097078;28;20696;-84
2022/11/18 07:48:24;;;;;;;0.38;0.30;;;7.20;99.90;;;;;;5109709;28;20218;-84
2022/11/18 07:50:51;;;;;;;0.30;0.20;;;7.10;99.90;;;;;;5109260;28;20232;-84
2022/11/18 07:53:19;;;;;;;0.30;0.30;;;7.10;99.90;;;;;;5109316;28;20208;-84
2022/11/18 07:55:46;;;;;;;0.38;0.28;;;7.00;99.90;;;;;;5108491;28;20289;-84
2022/11/18 07:58:13;;;;;;;0.30;0.20;;;7.10;99.90;;;;;;5109402;28;20317;-85
2022/11/18 08:00:40;;;;;;;0.30;0.20;;;7.70;99.90;;;;;;5100865;28;20225;-84
2022/11/18 08:03:06;;;;;;;0.40;0.40;;;7.10;99.90;;;;;;5109129;28;20305;-84
2022/11/18 08:05:39;;;;;;;0.30;0.30;;;7.00;99.90;;;;;;5105948;27;20300;-85
2022/11/18 08:08:09;;;;;;;0.40;0.30;;;7.00;99.90;;;;;;5103405;27;20210;-86
2022/11/18 08:10:37;;;;;;;0.30;0.20;;;7.00;99.90;;;;;;5102057;27;20199;-85
2022/11/18 08:13:05;;;;;;;5.65;0.85;;;;;;;;;;5101358;27;20289;-84
2022/11/18 08:15:31;;;;;;;0.30;0.20;;;7.20;99.90;;;;;;5101533;27;20278;-85
2022/11/18 08:17:59;;;;;;;0.30;0.30;;;;;;;;;;5116528;27;20663;-84
2022/11/18 08:20:26;;;;;;;0.40;0.25;;;7.10;99.90;;;;;;5120274;27;20201;-84
2022/11/18 08:22:53;;;;;;;0.40;0.20;;;7.20;99.90;;;;;;5128394;27;20655;-84
2022/11/18 08:25:20;;;;;;;0.30;0.20;;;7.20;99.90;;;;;;5129001;27;20232;-84
2022/11/18 08:27:48;;;;;;;0.40;0.28;;;7.10;99.90;;;;;;5129293;27;20310;-85
2022/11/18 08:30:15;;;;;;;0.30;0.20;;;7.10;99.90;;;;;;5129231;27;20197;-84
2022/11/18 08:32:42;;;;;;;0.30;0.20;;;7.20;99.90;;;;;;5117277;27;20198;-85
2022/11/18 08:35:10;;;;;;;0.30;0.10;;;7.20;99.90;;;;;;5091165;28;21273;-84
2022/11/18 08:37:37;;;;;;;0.30;0.20;;;7.10;99.90;;;;;;5088580;28;20198;-84
2022/11/18 08:40:04;;;;;;;0.50;0.30;;;8.50;99.90;;;;;;5088123;28;20202;-84
2022/11/18 08:42:32;;;;;;;0.30;0.20;;;;;;;;;;5088451;28;20200;-86
2022/11/18 08:45:00;;;;;;;0.83;0.23;;;7.10;99.90;;;;;;5088134;28;20296;-84
2022/11/18 08:47:27;;;;;;;0.30;0.20;;;7.20;99.90;;;;;;5098744;28;20656;-84
2022/11/18 08:49:54;;;;;;;0.55;0.30;;;7.20;99.90;;;;;;5107766;28;20238;-84
2022/11/18 08:52:21;;;;;;;0.77;0.52;;;;;;;;;;5098786;28;20687;-85
2022/11/18 08:54:48;;;;;;;0.40;0.20;;;;;;;;;;5098133;28;20199;-85
2022/11/18 08:57:15;;;;;;;0.30;0.30;;;7.10;99.90;;;;;;5097136;28;20667;-84
2022/11/18 08:59:42;;;;;;;0.38;0.38;;;7.30;99.90;;;;;;5097372;28;21058;-84
2022/11/18 09:02:15;;;;;;;0.30;0.30;;;7.20;99.90;;;;;;5095065;28;20218;-84
2022/11/18 09:04:42;;;;;;;0.30;0.20;;;;;;;;;;5087746;28;20204;-85
2022/11/18 09:07:09;;;;;;;0.30;0.20;;;7.40;99.90;;;;;;5087811;28;20226;-84
2022/11/18 09:09:36;;;;;;;0.40;0.40;;;7.50;99.90;;;;;;5090731;28;20603;-85
2022/11/18 09:12:04;;;;;;;0.40;0.40;;;;;;;;;;5102294;28;20709;-84
2022/11/18 09:14:31;;;;;;;0.98;0.50;;;7.60;99.90;;;;;;5107966;28;20211;-85
2022/11/18 09:16:58;;;;;;;0.60;0.50;;;;;;;;;;5107772;28;20725;-84
2022/11/18 09:19:27;;;;;;;0.70;0.40;;;7.40;99.90;;;;;;5108002;28;20922;-84
2022/11/18 09:21:54;;;;;;;0.63;0.50;;;;;;;;;;5094233;28;21449;-84
2022/11/18 09:24:21;;;;;;;0.70;0.70;;;;;;;;;;5097501;28;21193;-86
2022/11/18 09:26:48;;;;;;;0.30;0.20;;;;;;;;;;5104990;28;20675;-84
2022/11/18 09:29:15;;;;;;;0.40;0.40;;;7.60;99.90;;;;;;5108058;28;20681;-86
2022/11/18 09:31:42;;;;;;;0.30;0.20;;;;;;;;;;5095246;28;20652;-84
2022/11/18 09:34:10;;;;;;;0.30;0.20;;;7.70;99.90;;;;;;5086917;28;20653;-84
2022/11/18 09:36:38;;;;;;;0.50;0.27;;;7.60;99.90;;;;;;5085707;28;20609;-85
2022/11/18 09:39:05;;;;;;;0.40;0.30;;;7.70;99.90;;;;;;5086447;28;20632;-84
2022/11/18 09:41:45;;;;;;;0.30;0.20;;;7.70;99.90;;;;;;5086739;28;20693;-85
2022/11/18 09:44:41;;;;;;;0.30;0.20;;;8.10;99.90;;;;;;5086864;28;20612;-84
2022/11/18 09:47:17;;;;;;;0.40;0.40;;;7.80;99.90;;;;;;5086915;28;20652;-84
2022/11/18 09:49:46;;;;;;;0.87;0.50;;;7.50;99.90;;;;;;5087177;28;20652;-85
2022/11/18 09:52:18;;;;;;;0.40;0.30;;;7.80;99.90;;;;;;5087182;28;20609;-84
2022/11/18 09:54:45;;;;;;;1.03;0.50;;;7.90;99.90;;;;;;5087757;28;20727;-84
2022/11/18 09:57:15;;;;;;;0.40;0.40;;;8.10;99.90;;;;;;5087608;28;20724;-84
2022/11/18 09:59:42;;;;;;;0.83;0.67;;;8.30;99.90;;;;;;5097479;28;20622;-85
2022/11/18 10:02:33;;;;;;;0.40;0.33;;;8.30;99.90;;;;;;5107801;28;20615;-84
2022/11/18 10:05:13;;;;;;;0.53;0.50;;;8.20;99.90;;;;;;5107959;28;20619;-84
2022/11/18 10:07:48;;;;;;;0.60;0.20;;;8.30;99.90;;;;;;5104503;28;20684;-84
2022/11/18 10:10:22;;;;;;;0.30;0.30;;;8.30;99.90;;;;;;5099828;28;20616;-84
2022/11/18 10:12:56;;;;;;;0.50;0.37;;;8.30;99.90;;;;;;5099849;28;20727;-85
2022/11/18 10:15:29;;;;;;;1.70;1.60;;;8.20;99.90;;;;;;5098894;28;21364;-84
2022/11/18 10:18:06;;;;;;;0.90;0.40;;;8.30;99.90;;;;;;5102424;28;21032;-84
2022/11/18 10:20:43;;;;;;;0.30;0.30;;;8.40;99.90;;;;;;5103671;28;20688;-84
2022/11/18 10:23:18;;;;;;;0.40;0.40;;;8.60;99.90;;;;;;5110913;28;20634;-84
2022/11/18 10:25:46;;;;;;;0.50;0.40;;;;;;;;;;5110536;28;20663;-84
2022/11/18 10:28:20;;;;;;;0.70;0.60;;;8.30;99.90;;;;;;5105990;28;20640;-84
2022/11/18 10:30:47;;;;;;;0.40;0.40;;;8.30;99.90;;;;;;5089296;28;20953;-84
2022/11/18 10:33:26;;;;;;;0.30;0.30;;;8.40;99.90;;;;;;5090311;28;20656;-85
2022/11/18 10:36:09;;;;;;;0.67;0.67;;;8.40;99.90;;;;;;5109539;28;20975;-84
2022/11/18 10:38:38;;;;;;;0.30;0.30;;;8.40;99.90;;;;;;5111084;28;20655;-84
2022/11/18 10:41:09;;;;;;;0.60;0.30;;;8.50;99.90;;;;;;5111151;28;20626;-84
2022/11/18 10:43:48;;;;;;;0.60;0.60;;;8.40;99.90;;;;;;5110247;28;20627;-84
2022/11/18 10:46:26;;;;;;;0.67;0.47;;;8.50;99.90;;;;;;5110603;28;20666;-85
2022/11/18 10:49:23;;;;;;;0.60;0.40;;;8.50;99.90;;;;;;5097699;28;20723;-84
2022/11/18 10:52:09;;;;;;;0.50;0.50;;;8.50;99.90;;;;;;5024986;28;20734;-84
2022/11/18 10:54:38;;;;;;;0.70;0.50;;;8.50;99.90;;;;;;5082314;28;21147;-84
2022/11/18 10:57:09;;;;;;;0.80;0.40;;;8.50;99.90;;;;;;5089545;28;21178;-84
2022/11/18 10:59:41;;;;;;;0.50;0.40;;;8.40;99.90;;;;;;5095614;28;20635;-84
2022/11/18 11:02:16;;;;;;;0.83;0.50;;;8.70;99.90;;;;;;5102217;28;20608;-84
2022/11/18 11:04:44;;;;;;;0.43;0.43;;;8.60;99.90;;;;;;5110652;28;20746;-84
2022/11/18 11:07:26;;;;;;;0.40;0.37;;;8.70;99.90;;;;;;5110012;28;20754;-84
2022/11/18 11:10:09;;;;;;;0.40;0.20;;;8.70;99.90;;;;;;5110262;28;21200;-83
2022/11/18 11:12:45;;;;;;;0.97;0.97;;;8.60;99.90;;;;;;5110179;28;20615;-84
2022/11/18 11:15:15;;;;;;;0.80;0.50;;;8.70;99.90;;;;;;5102431;28;20627;-85
2022/11/18 11:18:40;;;;;;;0.50;0.50;;;8.90;99.90;;;;;;5099526;28;21120;-85
2022/11/18 11:20:37;;;;;;;0.40;0.37;;;8.90;99.90;;;;;;5099321;27;20632;-84
2022/11/18 11:23:09;;;;;;;1.37;1.13;;;8.90;99.90;;;;;;5100066;28;20624;-84
2022/11/18 11:25:42;;;;;;;0.83;0.57;;;9.00;99.90;;;;;;5104813;28;21197;-84
2022/11/18 11:28:19;;;;;;;0.47;0.30;;;8.90;99.90;;;;;;5109723;28;20775;-84
2022/11/18 11:30:51;;;;;;;1.13;0.67;;;8.70;99.90;;;;;;5109675;28;20719;-84
2022/11/18 11:33:31;;;;;;;0.50;0.40;;;8.60;99.90;;;;;;5107925;28;20720;-83
2022/11/18 11:36:27;;;;;;;0.50;0.50;;;8.60;99.90;;;;;;5089189;28;21171;-84
2022/11/18 11:39:04;;;;;;;0.50;0.30;;;8.70;99.90;;;;;;5089465;28;21005;-83
2022/11/18 11:41:43;;;;;;;0.30;0.20;;;8.80;99.90;;;;;;5088934;28;20644;-83
2022/11/18 11:44:25;;;;;;;0.50;0.50;;;8.90;99.90;;;;;;5089293;28;20612;-83
2022/11/18 11:50:02;;;;;;;0.60;0.47;;;8.80;99.90;;;;;;5088925;28;21019;-84
2022/11/18 11:52:40;;;;;;;0.40;0.30;;;8.50;99.90;;;;;;5088350;28;20711;-83
2022/11/18 11:55:18;;;;;;;0.30;0.20;;;8.50;99.90;;;;;;5104807;28;21437;-84
2022/11/18 11:58:09;;;;;;;0.80;0.57;;;8.50;99.90;;;;;;5108764;28;20760;-84
2022/11/18 12:00:43;;;;;;;1.03;0.40;;;8.50;99.90;;;;;;5091574;28;21367;-84
2022/11/18 12:03:44;;;;;;;0.40;0.30;;;8.50;99.90;;;;;;5096889;28;20616;-84
2022/11/18 12:06:21;;;;;;;0.37;0.27;;;7.60;99.90;;;;;;5098338;28;20667;-85
2022/11/18 12:09:09;;;;;;;1.00;0.63;;;8.80;99.90;;;;;;5098181;28;20654;-85
2022/11/18 12:11:54;;;;;;;0.40;0.40;;;8.40;99.90;;;;;;5107952;28;20636;-87
2022/11/18 12:15:15;;;;;;;;;;;;;;;;;;;;;
2022/11/18 12:17:52;;;;;;;2.30;0.70;;;8.40;99.90;;;;;;5089129;28;20628;-86
2022/11/18 12:20:49;;;;;;;0.43;0.37;;;8.50;99.90;;;;;;5086952;28;20620;-86
2022/11/18 12:23:19;;;;;;;1.40;0.70;;;8.20;99.90;;;;;;5050196;28;20632;-86
2022/11/18 12:26:04;;;;;;;0.40;0.40;;;8.20;99.90;;;;;;5086933;28;20636;-84
2022/11/18 12:28:40;;;;;;;0.60;0.30;;;8.20;99.90;;;;;;5074898;28;20608;-87
2022/11/18 12:31:32;;;;;;;0.97;0.53;;;8.10;99.90;;;;;;5076837;28;20657;-85
2022/11/18 12:34:02;;;;;;;0.60;0.30;;;8.10;99.90;;;;;;5079096;28;20625;-84
2022/11/18 12:36:31;;;;;;;0.73;0.70;;;8.10;99.90;;;;;;5077083;28;21030;-85
2022/11/18 12:38:59;;;;;;;0.40;0.23;;;7.80;99.90;;;;;;5075809;28;21245;-85
2022/11/18 12:44:38;;;;;;;0.30;0.20;;;8.00;99.90;;;;;;5076387;28;20727;-84
2022/11/18 12:47:07;;;;;;;0.43;0.30;;;8.00;99.90;;;;;;5087683;28;20656;-85
2022/11/18 12:50:08;;;;;;;0.50;0.30;;;7.90;99.90;;;;;;5087808;28;21102;-84
2022/11/18 12:52:52;;;;;;;0.30;0.17;;;8.10;99.90;;;;;;5086784;28;21132;-85
2022/11/18 12:55:25;;;;;;;0.43;0.40;;;8.10;99.90;;;;;;5088021;28;20720;-85
2022/11/18 12:57:52;;;;;;;0.50;0.40;;;;;;;;;;5087037;28;20653;-85
2022/11/18 13:00:30;;;;;;;0.40;0.30;;;8.40;99.90;;;;;;5088063;28;20682;-84
2022/11/18 13:03:01;;;;;;;1.50;0.47;;;8.40;99.90;;;;;;5087041;28;20648;-84
2022/11/18 13:05:30;;;;;;;1.73;0.70;;;8.40;99.90;;;;;;5079700;28;20633;-85
2022/11/18 13:08:15;;;;;;;2.47;1.13;;;8.70;99.90;;;;;;5066718;28;20809;-85
2022/11/18 13:10:48;;;;;;;0.40;0.30;;;8.50;99.90;;;;;;5066874;28;20733;-86
2022/11/18 13:13:24;;;;;;;0.50;0.50;;;8.60;99.90;;;;;;5081754;28;20652;-85
2022/11/18 13:18:49;;;;;;;0.47;0.40;;;8.70;99.90;;;;;;5070454;28;20645;-85
2022/11/18 13:24:12;;;;;;;0.60;0.53;;;8.50;99.90;;;;;;5081930;28;20628;-85
2022/11/18 13:26:41;;;;;;;0.33;0.33;;;8.30;99.90;;;;;;5077413;28;20671;-85
2022/11/18 13:29:32;;;;;;;1.17;0.73;;;8.50;99.90;;;;;;5069310;28;20618;-85
2022/11/18 13:32:20;;;;;;;0.70;0.70;;;8.50;99.90;;;;;;5070859;28;20663;-85
2022/11/18 13:34:51;;;;;;;0.60;0.53;;;8.50;99.90;;;;;;5087416;28;20732;-85
2022/11/18 13:37:20;;;;;;;0.93;0.53;;;8.50;99.90;;;;;;5071363;28;20741;-85
2022/11/18 13:39:48;;;;;;;0.60;0.43;;;8.40;99.90;;;;;;5067065;28;20722;-84
2022/11/18 13:42:19;;;;;;;0.60;0.40;;;8.40;99.90;;;;;;5070301;28;21233;-85
2022/11/18 13:44:51;;;;;;;0.90;0.63;;;8.50;99.90;;;;;;5088989;28;20674;-85
2022/11/18 13:47:27;;;;;;;0.57;0.57;;;8.40;99.90;;;;;;5090217;28;21615;-84
2022/11/18 13:50:13;;;;;;;1.20;1.20;;;8.40;99.90;;;;;;5090095;28;20724;-84
2022/11/18 13:52:44;;;;;;;1.03;0.73;;;8.40;99.90;;;;;;5090185;28;20785;-84
2022/11/18 13:55:18;;;;;;;1.80;0.60;;;8.30;99.90;;;;;;5090811;28;20605;-84
2022/11/18 13:57:48;;;;;;;0.50;0.50;;;8.40;99.90;;;;;;5090278;28;20616;-84
2022/11/18 14:00:23;;;;;;;0.50;0.30;;;8.40;99.90;;;;;;5090264;28;20731;-84